OIAM  Mahshahr Airport

Add Bookmark

Iran

Status IATA
Operational MRX
Latitude Longitude
30° 33' 22" N 49° 9' 6" E
30.556200 49.151901
Local (DST + 5) UTC (GMT + 4)
Oct 21, 2014 05:01 Oct 21, 2014 13:31
Sunrise-Sunset Local UTC
Begin Civil Twilight 05:54 02:24
Sunrise 06:18 02:48
Sunset 05:37 14:07
End Civil Twilight 06:01 14:31

Current Weather

METAR Observed VFR
OIAM 211300Z 27010KT CAVOK 28/11 Q1012 Tue, Oct 21, 2014 @ 13:00 UTC
(31 Minutes ago)
Visual Flight Rules
Wind Visibility Clouds Conditions
270° at 10 knots (19 kph) 10 km or more
  • Clear skies
  • No significant weather
Temperatures Readings Precipitation
Current Temp 28°C (82°F)
Dewpoint 11°C (52°F)
Humidity 35%
Altimeter 29.88"Hg
Sea Level Pressure 1012mb
Field Elevation 13.12'
None Recorded

Additional weather within a 92.6km radius of OIAM

Map ICAO Location
OIAG 54.4km E (067°)
OIAA 90.7km W (257°)

24 Hour Weather History

Loading
-

24 Hour Weather Graphs

Loading
-

CheckWX.com is intended as a tool to help pilots better visualize weather data. It is not intended as a substitute for an official weather briefing obtained from a Flight Service Station. CheckWX.com does not meet the FAA requirements for an official pre-flight weather briefing. Therefore, it's important that pilots still call and obtain an official FSS pre-flight weather briefing.